sensor_id;sensor_type;location;lat;lon;timestamp;P1;durP1;ratioP1;P2;durP2;ratioP2
49384;SDS011;36795;45.028;38.968;2023-05-07T00:00:39;25.15;;;4.43;;
49384;SDS011;36795;45.028;38.968;2023-05-07T00:03:25;27.85;;;5.05;;
49384;SDS011;36795;45.028;38.968;2023-05-07T00:06:12;27.17;;;4.12;;
49384;SDS011;36795;45.028;38.968;2023-05-07T00:08:58;24.87;;;4.50;;
49384;SDS011;36795;45.028;38.968;2023-05-07T00:11:45;26.87;;;4.87;;
49384;SDS011;36795;45.028;38.968;2023-05-07T00:14:31;19.55;;;4.07;;
49384;SDS011;36795;45.028;38.968;2023-05-07T00:17:17;22.17;;;3.90;;
49384;SDS011;36795;45.028;38.968;2023-05-07T00:20:04;21.83;;;4.18;;
49384;SDS011;36795;45.028;38.968;2023-05-07T00:22:51;20.33;;;4.35;;
49384;SDS011;36795;45.028;38.968;2023-05-07T00:25:37;20.67;;;4.70;;
49384;SDS011;36795;45.028;38.968;2023-05-07T00:28:23;21.15;;;4.40;;
49384;SDS011;36795;45.028;38.968;2023-05-07T00:31:10;22.62;;;3.70;;
49384;SDS011;36795;45.028;38.968;2023-05-07T00:33:55;18.20;;;3.33;;
49384;SDS011;36795;45.028;38.968;2023-05-07T00:36:42;18.80;;;3.65;;
49384;SDS011;36795;45.028;38.968;2023-05-07T00:39:27;21.25;;;3.65;;
49384;SDS011;36795;45.028;38.968;2023-05-07T00:42:14;26.40;;;4.18;;
49384;SDS011;36795;45.028;38.968;2023-05-07T00:45:01;20.50;;;3.80;;
49384;SDS011;36795;45.028;38.968;2023-05-07T00:47:49;25.85;;;4.47;;
49384;SDS011;36795;45.028;38.968;2023-05-07T00:50:35;18.27;;;3.80;;
49384;SDS011;36795;45.028;38.968;2023-05-07T00:53:21;20.70;;;3.25;;
49384;SDS011;36795;45.028;38.968;2023-05-07T00:56:07;24.27;;;3.60;;
49384;SDS011;36795;45.028;38.968;2023-05-07T00:58:54;22.77;;;4.28;;
49384;SDS011;36795;45.028;38.968;2023-05-07T01:01:40;21.17;;;4.18;;
49384;SDS011;36795;45.028;38.968;2023-05-07T01:04:27;20.25;;;3.65;;
49384;SDS011;36795;45.028;38.968;2023-05-07T01:07:13;21.95;;;3.53;;
49384;SDS011;36795;45.028;38.968;2023-05-07T01:09:59;17.60;;;4.05;;
49384;SDS011;36795;45.028;38.968;2023-05-07T01:12:47;18.08;;;3.45;;
49384;SDS011;36795;45.028;38.968;2023-05-07T01:15:34;17.12;;;3.92;;
49384;SDS011;36795;45.028;38.968;2023-05-07T01:18:21;17.42;;;3.62;;
49384;SDS011;36795;45.028;38.968;2023-05-07T01:21:07;23.87;;;3.95;;
49384;SDS011;36795;45.028;38.968;2023-05-07T01:23:56;20.05;;;3.95;;
49384;SDS011;36795;45.028;38.968;2023-05-07T01:26:43;26.70;;;3.92;;
49384;SDS011;36795;45.028;38.968;2023-05-07T01:29:31;16.98;;;3.55;;
49384;SDS011;36795;45.028;38.968;2023-05-07T01:32:18;24.42;;;3.87;;
49384;SDS011;36795;45.028;38.968;2023-05-07T01:35:12;19.23;;;3.83;;
49384;SDS011;36795;45.028;38.968;2023-05-07T01:38:02;20.50;;;4.20;;
49384;SDS011;36795;45.028;38.968;2023-05-07T01:40:51;20.70;;;3.72;;
49384;SDS011;36795;45.028;38.968;2023-05-07T01:43:39;21.05;;;3.70;;
49384;SDS011;36795;45.028;38.968;2023-05-07T01:46:26;19.05;;;3.60;;
49384;SDS011;36795;45.028;38.968;2023-05-07T01:49:12;18.12;;;3.50;;
49384;SDS011;36795;45.028;38.968;2023-05-07T01:51:59;26.92;;;4.37;;
49384;SDS011;36795;45.028;38.968;2023-05-07T01:54:45;21.10;;;3.83;;
49384;SDS011;36795;45.028;38.968;2023-05-07T01:57:31;16.67;;;3.15;;
49384;SDS011;36795;45.028;38.968;2023-05-07T02:00:17;18.77;;;3.50;;
49384;SDS011;36795;45.028;38.968;2023-05-07T02:03:04;23.08;;;3.83;;
49384;SDS011;36795;45.028;38.968;2023-05-07T02:05:51;13.85;;;3.20;;
49384;SDS011;36795;45.028;38.968;2023-05-07T02:08:37;15.60;;;3.30;;
49384;SDS011;36795;45.028;38.968;2023-05-07T02:11:24;22.42;;;3.60;;
49384;SDS011;36795;45.028;38.968;2023-05-07T02:14:10;22.02;;;3.47;;
49384;SDS011;36795;45.028;38.968;2023-05-07T02:16:56;16.00;;;3.22;;
49384;SDS011;36795;45.028;38.968;2023-05-07T02:19:42;15.00;;;3.37;;
49384;SDS011;36795;45.028;38.968;2023-05-07T02:22:28;15.73;;;3.35;;
49384;SDS011;36795;45.028;38.968;2023-05-07T02:25:14;12.88;;;3.03;;
49384;SDS011;36795;45.028;38.968;2023-05-07T02:28:01;23.67;;;3.47;;
49384;SDS011;36795;45.028;38.968;2023-05-07T02:30:48;21.58;;;3.35;;
49384;SDS011;36795;45.028;38.968;2023-05-07T02:33:35;17.75;;;3.35;;
49384;SDS011;36795;45.028;38.968;2023-05-07T02:36:22;17.45;;;3.25;;
49384;SDS011;36795;45.028;38.968;2023-05-07T02:39:08;11.95;;;3.08;;
49384;SDS011;36795;45.028;38.968;2023-05-07T02:41:54;17.27;;;3.15;;
49384;SDS011;36795;45.028;38.968;2023-05-07T02:44:40;20.62;;;3.22;;
49384;SDS011;36795;45.028;38.968;2023-05-07T02:47:27;19.40;;;4.43;;
49384;SDS011;36795;45.028;38.968;2023-05-07T02:50:13;16.17;;;3.40;;
49384;SDS011;36795;45.028;38.968;2023-05-07T02:53:00;18.67;;;3.05;;
49384;SDS011;36795;45.028;38.968;2023-05-07T02:55:47;9.95;;;2.65;;
49384;SDS011;36795;45.028;38.968;2023-05-07T02:58:33;13.20;;;2.92;;
49384;SDS011;36795;45.028;38.968;2023-05-07T03:01:19;15.07;;;2.85;;
49384;SDS011;36795;45.028;38.968;2023-05-07T03:04:07;14.23;;;2.92;;
49384;SDS011;36795;45.028;38.968;2023-05-07T03:06:52;16.98;;;3.37;;
49384;SDS011;36795;45.028;38.968;2023-05-07T03:09:39;14.77;;;3.10;;
49384;SDS011;36795;45.028;38.968;2023-05-07T03:12:24;16.92;;;3.05;;
49384;SDS011;36795;45.028;38.968;2023-05-07T03:15:11;18.05;;;3.25;;
49384;SDS011;36795;45.028;38.968;2023-05-07T03:17:57;13.48;;;3.20;;
49384;SDS011;36795;45.028;38.968;2023-05-07T03:20:44;18.12;;;3.20;;
49384;SDS011;36795;45.028;38.968;2023-05-07T03:23:29;19.90;;;2.95;;
49384;SDS011;36795;45.028;38.968;2023-05-07T03:26:15;13.30;;;2.75;;
49384;SDS011;36795;45.028;38.968;2023-05-07T03:29:03;13.18;;;2.75;;
49384;SDS011;36795;45.028;38.968;2023-05-07T03:31:49;18.42;;;3.20;;
49384;SDS011;36795;45.028;38.968;2023-05-07T03:34:35;12.77;;;3.03;;
49384;SDS011;36795;45.028;38.968;2023-05-07T03:37:22;14.18;;;2.60;;
49384;SDS011;36795;45.028;38.968;2023-05-07T03:40:08;23.27;;;4.20;;
49384;SDS011;36795;45.028;38.968;2023-05-07T03:42:59;17.17;;;2.90;;
49384;SDS011;36795;45.028;38.968;2023-05-07T03:45:46;15.85;;;3.20;;
49384;SDS011;36795;45.028;38.968;2023-05-07T03:48:33;18.55;;;2.85;;
49384;SDS011;36795;45.028;38.968;2023-05-07T03:51:19;22.02;;;2.92;;
49384;SDS011;36795;45.028;38.968;2023-05-07T03:54:07;17.67;;;3.30;;
49384;SDS011;36795;45.028;38.968;2023-05-07T03:56:53;14.75;;;2.75;;
49384;SDS011;36795;45.028;38.968;2023-05-07T03:59:39;15.57;;;2.45;;
49384;SDS011;36795;45.028;38.968;2023-05-07T04:02:26;13.00;;;2.58;;
49384;SDS011;36795;45.028;38.968;2023-05-07T04:05:12;17.27;;;3.20;;
49384;SDS011;36795;45.028;38.968;2023-05-07T04:08:00;18.75;;;2.90;;
49384;SDS011;36795;45.028;38.968;2023-05-07T04:10:54;13.20;;;2.60;;
49384;SDS011;36795;45.028;38.968;2023-05-07T04:13:41;17.75;;;2.85;;
49384;SDS011;36795;45.028;38.968;2023-05-07T04:16:28;15.50;;;3.10;;
49384;SDS011;36795;45.028;38.968;2023-05-07T04:19:13;14.13;;;2.78;;
49384;SDS011;36795;45.028;38.968;2023-05-07T04:22:00;12.30;;;2.97;;
49384;SDS011;36795;45.028;38.968;2023-05-07T04:24:48;14.45;;;2.97;;
49384;SDS011;36795;45.028;38.968;2023-05-07T04:27:35;16.08;;;2.45;;
49384;SDS011;36795;45.028;38.968;2023-05-07T04:30:22;15.82;;;2.85;;
49384;SDS011;36795;45.028;38.968;2023-05-07T04:33:08;15.50;;;2.65;;
49384;SDS011;36795;45.028;38.968;2023-05-07T04:35:54;11.40;;;2.53;;
49384;SDS011;36795;45.028;38.968;2023-05-07T04:38:41;11.65;;;2.45;;
49384;SDS011;36795;45.028;38.968;2023-05-07T04:41:27;11.80;;;2.72;;
49384;SDS011;36795;45.028;38.968;2023-05-07T04:44:13;15.05;;;2.78;;
49384;SDS011;36795;45.028;38.968;2023-05-07T04:46:59;13.68;;;3.17;;
49384;SDS011;36795;45.028;38.968;2023-05-07T04:49:46;19.48;;;2.83;;
49384;SDS011;36795;45.028;38.968;2023-05-07T04:52:32;12.45;;;2.37;;
49384;SDS011;36795;45.028;38.968;2023-05-07T04:55:18;17.42;;;4.20;;
49384;SDS011;36795;45.028;38.968;2023-05-07T04:58:04;27.62;;;12.35;;
49384;SDS011;36795;45.028;38.968;2023-05-07T05:00:52;14.32;;;2.40;;
49384;SDS011;36795;45.028;38.968;2023-05-07T05:03:38;12.85;;;2.83;;
49384;SDS011;36795;45.028;38.968;2023-05-07T05:06:25;15.45;;;2.45;;
49384;SDS011;36795;45.028;38.968;2023-05-07T05:09:10;20.50;;;3.95;;
49384;SDS011;36795;45.028;38.968;2023-05-07T05:11:58;13.93;;;2.28;;
49384;SDS011;36795;45.028;38.968;2023-05-07T05:14:44;12.65;;;2.58;;
49384;SDS011;36795;45.028;38.968;2023-05-07T05:17:32;20.90;;;3.97;;
49384;SDS011;36795;45.028;38.968;2023-05-07T05:20:19;9.63;;;2.70;;
49384;SDS011;36795;45.028;38.968;2023-05-07T05:23:07;12.75;;;2.80;;
49384;SDS011;36795;45.028;38.968;2023-05-07T05:25:56;11.43;;;2.50;;
49384;SDS011;36795;45.028;38.968;2023-05-07T05:28:44;14.30;;;2.60;;
49384;SDS011;36795;45.028;38.968;2023-05-07T05:31:30;14.18;;;2.83;;
49384;SDS011;36795;45.028;38.968;2023-05-07T05:34:16;17.00;;;2.97;;
49384;SDS011;36795;45.028;38.968;2023-05-07T05:37:04;18.12;;;2.85;;
49384;SDS011;36795;45.028;38.968;2023-05-07T05:39:51;11.95;;;2.67;;
49384;SDS011;36795;45.028;38.968;2023-05-07T05:42:39;12.30;;;3.10;;
49384;SDS011;36795;45.028;38.968;2023-05-07T05:45:26;14.63;;;2.87;;
49384;SDS011;36795;45.028;38.968;2023-05-07T05:48:12;14.73;;;2.35;;
49384;SDS011;36795;45.028;38.968;2023-05-07T05:50:58;16.30;;;2.85;;
49384;SDS011;36795;45.028;38.968;2023-05-07T05:53:45;19.85;;;3.45;;
49384;SDS011;36795;45.028;38.968;2023-05-07T05:56:31;14.02;;;2.95;;
49384;SDS011;36795;45.028;38.968;2023-05-07T05:59:17;9.73;;;2.10;;
49384;SDS011;36795;45.028;38.968;2023-05-07T06:02:04;14.68;;;2.70;;
49384;SDS011;36795;45.028;38.968;2023-05-07T06:04:50;15.48;;;2.95;;
49384;SDS011;36795;45.028;38.968;2023-05-07T06:07:36;12.23;;;2.70;;
49384;SDS011;36795;45.028;38.968;2023-05-07T06:10:23;20.20;;;3.35;;
49384;SDS011;36795;45.028;38.968;2023-05-07T06:13:10;16.87;;;3.10;;
49384;SDS011;36795;45.028;38.968;2023-05-07T06:15:57;16.10;;;2.95;;
49384;SDS011;36795;45.028;38.968;2023-05-07T06:18:43;13.57;;;2.75;;
49384;SDS011;36795;45.028;38.968;2023-05-07T06:21:32;14.52;;;2.87;;
49384;SDS011;36795;45.028;38.968;2023-05-07T06:24:18;16.70;;;2.92;;
49384;SDS011;36795;45.028;38.968;2023-05-07T06:27:04;17.60;;;3.05;;
49384;SDS011;36795;45.028;38.968;2023-05-07T06:29:50;13.45;;;2.42;;
49384;SDS011;36795;45.028;38.968;2023-05-07T06:32:37;17.00;;;2.78;;
49384;SDS011;36795;45.028;38.968;2023-05-07T06:35:23;18.55;;;3.25;;
49384;SDS011;36795;45.028;38.968;2023-05-07T06:38:09;22.02;;;3.00;;
49384;SDS011;36795;45.028;38.968;2023-05-07T06:40:55;15.63;;;2.90;;
49384;SDS011;36795;45.028;38.968;2023-05-07T06:43:42;19.42;;;3.50;;
49384;SDS011;36795;45.028;38.968;2023-05-07T06:46:30;16.40;;;3.20;;
49384;SDS011;36795;45.028;38.968;2023-05-07T06:49:16;23.05;;;3.33;;
49384;SDS011;36795;45.028;38.968;2023-05-07T06:52:03;13.62;;;3.33;;
49384;SDS011;36795;45.028;38.968;2023-05-07T06:54:50;13.40;;;2.70;;
49384;SDS011;36795;45.028;38.968;2023-05-07T06:57:36;18.75;;;3.28;;
49384;SDS011;36795;45.028;38.968;2023-05-07T07:00:23;21.77;;;3.37;;
49384;SDS011;36795;45.028;38.968;2023-05-07T07:03:10;12.48;;;2.95;;
49384;SDS011;36795;45.028;38.968;2023-05-07T07:05:56;17.52;;;3.40;;
49384;SDS011;36795;45.028;38.968;2023-05-07T07:08:42;17.20;;;3.15;;
49384;SDS011;36795;45.028;38.968;2023-05-07T07:11:30;20.12;;;3.37;;
49384;SDS011;36795;45.028;38.968;2023-05-07T07:14:16;12.43;;;2.92;;
49384;SDS011;36795;45.028;38.968;2023-05-07T07:17:03;13.43;;;2.87;;
49384;SDS011;36795;45.028;38.968;2023-05-07T07:19:50;20.80;;;4.03;;
49384;SDS011;36795;45.028;38.968;2023-05-07T07:22:36;20.37;;;3.30;;
49384;SDS011;36795;45.028;38.968;2023-05-07T07:25:23;15.30;;;2.80;;
49384;SDS011;36795;45.028;38.968;2023-05-07T07:28:09;19.62;;;3.00;;
49384;SDS011;36795;45.028;38.968;2023-05-07T07:30:56;17.20;;;3.00;;
49384;SDS011;36795;45.028;38.968;2023-05-07T07:33:42;16.12;;;3.40;;
49384;SDS011;36795;45.028;38.968;2023-05-07T07:36:28;19.62;;;3.25;;
49384;SDS011;36795;45.028;38.968;2023-05-07T07:39:15;22.02;;;3.60;;
49384;SDS011;36795;45.028;38.968;2023-05-07T07:42:01;18.42;;;3.75;;
49384;SDS011;36795;45.028;38.968;2023-05-07T07:44:48;17.85;;;3.87;;
49384;SDS011;36795;45.028;38.968;2023-05-07T07:47:35;25.85;;;6.85;;
49384;SDS011;36795;45.028;38.968;2023-05-07T07:50:21;25.23;;;5.10;;
49384;SDS011;36795;45.028;38.968;2023-05-07T07:53:07;19.62;;;5.18;;
49384;SDS011;36795;45.028;38.968;2023-05-07T07:55:53;19.33;;;3.83;;
49384;SDS011;36795;45.028;38.968;2023-05-07T07:58:40;22.85;;;5.37;;
49384;SDS011;36795;45.028;38.968;2023-05-07T08:01:29;22.58;;;3.92;;
49384;SDS011;36795;45.028;38.968;2023-05-07T08:04:16;17.87;;;3.53;;
49384;SDS011;36795;45.028;38.968;2023-05-07T08:07:03;16.08;;;3.70;;
49384;SDS011;36795;45.028;38.968;2023-05-07T08:09:49;19.33;;;3.42;;
49384;SDS011;36795;45.028;38.968;2023-05-07T08:12:36;30.88;;;15.63;;
49384;SDS011;36795;45.028;38.968;2023-05-07T08:15:22;20.75;;;4.70;;
49384;SDS011;36795;45.028;38.968;2023-05-07T08:18:09;25.88;;;6.35;;
49384;SDS011;36795;45.028;38.968;2023-05-07T08:20:56;21.33;;;4.68;;
49384;SDS011;36795;45.028;38.968;2023-05-07T08:23:43;18.23;;;4.25;;
49384;SDS011;36795;45.028;38.968;2023-05-07T08:26:29;16.23;;;3.35;;
49384;SDS011;36795;45.028;38.968;2023-05-07T08:29:16;22.95;;;4.55;;
49384;SDS011;36795;45.028;38.968;2023-05-07T08:32:02;20.17;;;3.87;;
49384;SDS011;36795;45.028;38.968;2023-05-07T08:34:48;24.12;;;4.78;;
49384;SDS011;36795;45.028;38.968;2023-05-07T08:37:34;19.92;;;4.00;;
49384;SDS011;36795;45.028;38.968;2023-05-07T08:40:25;14.00;;;3.28;;
49384;SDS011;36795;45.028;38.968;2023-05-07T08:43:12;21.05;;;4.15;;
49384;SDS011;36795;45.028;38.968;2023-05-07T08:46:01;15.10;;;4.00;;
49384;SDS011;36795;45.028;38.968;2023-05-07T08:48:49;17.77;;;3.72;;
49384;SDS011;36795;45.028;38.968;2023-05-07T08:51:35;16.58;;;3.58;;
49384;SDS011;36795;45.028;38.968;2023-05-07T08:54:22;21.20;;;3.97;;
49384;SDS011;36795;45.028;38.968;2023-05-07T08:57:10;20.12;;;4.65;;
49384;SDS011;36795;45.028;38.968;2023-05-07T08:59:56;17.75;;;3.53;;
49384;SDS011;36795;45.028;38.968;2023-05-07T09:02:42;31.98;;;13.45;;
49384;SDS011;36795;45.028;38.968;2023-05-07T09:05:29;21.95;;;4.70;;
49384;SDS011;36795;45.028;38.968;2023-05-07T09:08:15;23.17;;;5.18;;
49384;SDS011;36795;45.028;38.968;2023-05-07T09:11:03;25.05;;;5.10;;
49384;SDS011;36795;45.028;38.968;2023-05-07T09:13:53;22.83;;;5.05;;
49384;SDS011;36795;45.028;38.968;2023-05-07T09:16:45;24.50;;;4.60;;
49384;SDS011;36795;45.028;38.968;2023-05-07T09:19:31;19.75;;;5.47;;
49384;SDS011;36795;45.028;38.968;2023-05-07T09:22:18;19.17;;;5.03;;
49384;SDS011;36795;45.028;38.968;2023-05-07T09:25:06;20.77;;;5.03;;
49384;SDS011;36795;45.028;38.968;2023-05-07T09:27:54;19.10;;;4.40;;
49384;SDS011;36795;45.028;38.968;2023-05-07T09:30:40;20.12;;;4.40;;
49384;SDS011;36795;45.028;38.968;2023-05-07T09:33:28;20.37;;;4.70;;
49384;SDS011;36795;45.028;38.968;2023-05-07T09:36:15;16.58;;;4.30;;
49384;SDS011;36795;45.028;38.968;2023-05-07T09:39:02;21.55;;;4.82;;
49384;SDS011;36795;45.028;38.968;2023-05-07T09:41:48;22.90;;;5.10;;
49384;SDS011;36795;45.028;38.968;2023-05-07T09:44:37;20.00;;;4.15;;
49384;SDS011;36795;45.028;38.968;2023-05-07T09:47:24;19.33;;;4.43;;
49384;SDS011;36795;45.028;38.968;2023-05-07T09:50:14;21.87;;;4.68;;
49384;SDS011;36795;45.028;38.968;2023-05-07T09:53:01;19.75;;;4.18;;
49384;SDS011;36795;45.028;38.968;2023-05-07T09:55:49;25.05;;;5.25;;
49384;SDS011;36795;45.028;38.968;2023-05-07T09:58:37;24.40;;;9.93;;
49384;SDS011;36795;45.028;38.968;2023-05-07T10:01:27;26.52;;;8.27;;
49384;SDS011;36795;45.028;38.968;2023-05-07T10:04:16;24.00;;;7.00;;
49384;SDS011;36795;45.028;38.968;2023-05-07T10:07:03;26.05;;;5.03;;
49384;SDS011;36795;45.028;38.968;2023-05-07T10:09:51;24.40;;;6.28;;
49384;SDS011;36795;45.028;38.968;2023-05-07T10:12:40;22.55;;;7.18;;
49384;SDS011;36795;45.028;38.968;2023-05-07T10:15:27;27.52;;;8.52;;
49384;SDS011;36795;45.028;38.968;2023-05-07T10:18:15;49.85;;;23.52;;
49384;SDS011;36795;45.028;38.968;2023-05-07T10:21:11;73.70;;;44.97;;
49384;SDS011;36795;45.028;38.968;2023-05-07T10:24:07;59.13;;;35.15;;
49384;SDS011;36795;45.028;38.968;2023-05-07T10:27:00;36.15;;;10.80;;
49384;SDS011;36795;45.028;38.968;2023-05-07T10:33:21;88.95;;;56.03;;
49384;SDS011;36795;45.028;38.968;2023-05-07T10:36:11;58.90;;;35.50;;
49384;SDS011;36795;45.028;38.968;2023-05-07T10:38:58;36.45;;;17.83;;
49384;SDS011;36795;45.028;38.968;2023-05-07T10:41:45;29.00;;;9.38;;
49384;SDS011;36795;45.028;38.968;2023-05-07T10:44:31;30.90;;;11.80;;
49384;SDS011;36795;45.028;38.968;2023-05-07T10:47:18;25.45;;;9.73;;
49384;SDS011;36795;45.028;38.968;2023-05-07T10:53:37;39.88;;;18.55;;
49384;SDS011;36795;45.028;38.968;2023-05-07T11:02:20;24.02;;;4.97;;
49384;SDS011;36795;45.028;38.968;2023-05-07T11:05:19;31.65;;;6.30;;
49384;SDS011;36795;45.028;38.968;2023-05-07T11:08:09;24.58;;;5.90;;
49384;SDS011;36795;45.028;38.968;2023-05-07T11:10:56;20.30;;;4.82;;
49384;SDS011;36795;45.028;38.968;2023-05-07T11:13:44;22.58;;;4.90;;
49384;SDS011;36795;45.028;38.968;2023-05-07T11:16:37;29.48;;;5.68;;
49384;SDS011;36795;45.028;38.968;2023-05-07T11:22:39;19.33;;;4.62;;
49384;SDS011;36795;45.028;38.968;2023-05-07T11:25:26;24.50;;;5.45;;
49384;SDS011;36795;45.028;38.968;2023-05-07T11:28:13;20.33;;;4.97;;
49384;SDS011;36795;45.028;38.968;2023-05-07T11:31:01;23.65;;;5.57;;
49384;SDS011;36795;45.028;38.968;2023-05-07T11:33:48;23.45;;;5.95;;
49384;SDS011;36795;45.028;38.968;2023-05-07T11:36:35;20.85;;;5.05;;
49384;SDS011;36795;45.028;38.968;2023-05-07T11:39:28;26.05;;;5.35;;
49384;SDS011;36795;45.028;38.968;2023-05-07T11:42:32;22.25;;;5.97;;
49384;SDS011;36795;45.028;38.968;2023-05-07T11:45:23;22.00;;;5.05;;
49384;SDS011;36795;45.028;38.968;2023-05-07T11:48:12;22.08;;;5.62;;
49384;SDS011;36795;45.028;38.968;2023-05-07T11:53:45;25.37;;;6.10;;
49384;SDS011;36795;45.028;38.968;2023-05-07T11:56:33;26.27;;;5.95;;
49384;SDS011;36795;45.028;38.968;2023-05-07T11:59:20;22.95;;;7.20;;
49384;SDS011;36795;45.028;38.968;2023-05-07T12:02:06;23.55;;;6.55;;
49384;SDS011;36795;45.028;38.968;2023-05-07T12:04:53;23.33;;;6.10;;
49384;SDS011;36795;45.028;38.968;2023-05-07T12:07:40;21.87;;;5.82;;
49384;SDS011;36795;45.028;38.968;2023-05-07T12:10:26;24.60;;;5.82;;
49384;SDS011;36795;45.028;38.968;2023-05-07T12:16:06;24.67;;;6.55;;
49384;SDS011;36795;45.028;38.968;2023-05-07T12:18:52;21.05;;;5.95;;
49384;SDS011;36795;45.028;38.968;2023-05-07T12:21:40;24.50;;;5.90;;
49384;SDS011;36795;45.028;38.968;2023-05-07T12:24:26;22.17;;;5.95;;
49384;SDS011;36795;45.028;38.968;2023-05-07T12:27:12;25.50;;;5.97;;
49384;SDS011;36795;45.028;38.968;2023-05-07T12:30:03;21.55;;;6.35;;
49384;SDS011;36795;45.028;38.968;2023-05-07T12:32:53;25.88;;;7.28;;
49384;SDS011;36795;45.028;38.968;2023-05-07T12:35:40;27.02;;;6.78;;
49384;SDS011;36795;45.028;38.968;2023-05-07T12:38:32;29.23;;;7.37;;
49384;SDS011;36795;45.028;38.968;2023-05-07T12:41:21;31.98;;;11.60;;
49384;SDS011;36795;45.028;38.968;2023-05-07T12:44:11;24.63;;;7.28;;
49384;SDS011;36795;45.028;38.968;2023-05-07T12:47:03;24.77;;;6.78;;
49384;SDS011;36795;45.028;38.968;2023-05-07T12:49:49;21.02;;;5.90;;
49384;SDS011;36795;45.028;38.968;2023-05-07T12:52:36;22.92;;;6.57;;
49384;SDS011;36795;45.028;38.968;2023-05-07T12:55:23;33.30;;;11.38;;
49384;SDS011;36795;45.028;38.968;2023-05-07T12:58:14;23.27;;;7.03;;
49384;SDS011;36795;45.028;38.968;2023-05-07T13:01:05;25.35;;;6.00;;
49384;SDS011;36795;45.028;38.968;2023-05-07T13:03:52;21.73;;;5.85;;
49384;SDS011;36795;45.028;38.968;2023-05-07T13:06:38;26.00;;;5.65;;
49384;SDS011;36795;45.028;38.968;2023-05-07T13:09:24;21.30;;;6.68;;
49384;SDS011;36795;45.028;38.968;2023-05-07T13:12:10;22.90;;;5.65;;
49384;SDS011;36795;45.028;38.968;2023-05-07T13:14:56;26.02;;;6.28;;
49384;SDS011;36795;45.028;38.968;2023-05-07T13:17:42;21.08;;;5.87;;
49384;SDS011;36795;45.028;38.968;2023-05-07T13:20:29;25.02;;;6.20;;
49384;SDS011;36795;45.028;38.968;2023-05-07T13:23:15;23.87;;;6.68;;
49384;SDS011;36795;45.028;38.968;2023-05-07T13:26:00;25.83;;;6.28;;
49384;SDS011;36795;45.028;38.968;2023-05-07T13:28:47;24.30;;;7.65;;
49384;SDS011;36795;45.028;38.968;2023-05-07T13:31:33;24.77;;;8.18;;
49384;SDS011;36795;45.028;38.968;2023-05-07T13:34:20;21.45;;;6.53;;
49384;SDS011;36795;45.028;38.968;2023-05-07T13:37:06;22.52;;;5.68;;
49384;SDS011;36795;45.028;38.968;2023-05-07T13:39:53;26.58;;;7.07;;
49384;SDS011;36795;45.028;38.968;2023-05-07T13:42:39;20.05;;;6.10;;
49384;SDS011;36795;45.028;38.968;2023-05-07T13:45:25;25.62;;;7.30;;
49384;SDS011;36795;45.028;38.968;2023-05-07T13:48:11;22.83;;;5.95;;
49384;SDS011;36795;45.028;38.968;2023-05-07T13:50:58;22.10;;;5.65;;
49384;SDS011;36795;45.028;38.968;2023-05-07T13:53:44;21.55;;;6.15;;
49384;SDS011;36795;45.028;38.968;2023-05-07T13:56:30;23.20;;;7.55;;
49384;SDS011;36795;45.028;38.968;2023-05-07T13:59:17;24.80;;;9.45;;
49384;SDS011;36795;45.028;38.968;2023-05-07T14:02:03;23.35;;;6.25;;
49384;SDS011;36795;45.028;38.968;2023-05-07T14:04:50;22.23;;;6.10;;
49384;SDS011;36795;45.028;38.968;2023-05-07T14:07:35;23.02;;;5.47;;
49384;SDS011;36795;45.028;38.968;2023-05-07T14:10:22;22.30;;;6.10;;
49384;SDS011;36795;45.028;38.968;2023-05-07T14:13:08;21.37;;;8.00;;
49384;SDS011;36795;45.028;38.968;2023-05-07T14:15:54;28.80;;;9.98;;
49384;SDS011;36795;45.028;38.968;2023-05-07T14:18:40;23.27;;;11.73;;
49384;SDS011;36795;45.028;38.968;2023-05-07T14:21:26;18.83;;;4.93;;
49384;SDS011;36795;45.028;38.968;2023-05-07T14:24:12;15.32;;;4.10;;
49384;SDS011;36795;45.028;38.968;2023-05-07T14:26:58;15.93;;;4.20;;
49384;SDS011;36795;45.028;38.968;2023-05-07T14:29:45;23.02;;;4.60;;
49384;SDS011;36795;45.028;38.968;2023-05-07T14:32:36;19.95;;;4.97;;
49384;SDS011;36795;45.028;38.968;2023-05-07T14:35:21;18.62;;;4.78;;
49384;SDS011;36795;45.028;38.968;2023-05-07T14:38:08;22.17;;;5.15;;
49384;SDS011;36795;45.028;38.968;2023-05-07T14:40:53;20.02;;;4.10;;
49384;SDS011;36795;45.028;38.968;2023-05-07T14:43:42;21.23;;;4.47;;
49384;SDS011;36795;45.028;38.968;2023-05-07T14:46:28;23.08;;;4.97;;
49384;SDS011;36795;45.028;38.968;2023-05-07T14:49:15;18.52;;;4.10;;
49384;SDS011;36795;45.028;38.968;2023-05-07T14:52:04;21.60;;;3.85;;
49384;SDS011;36795;45.028;38.968;2023-05-07T14:54:52;21.80;;;8.32;;
49384;SDS011;36795;45.028;38.968;2023-05-07T14:57:38;19.37;;;4.72;;
49384;SDS011;36795;45.028;38.968;2023-05-07T15:00:24;20.65;;;3.97;;
49384;SDS011;36795;45.028;38.968;2023-05-07T15:03:10;18.45;;;3.65;;
49384;SDS011;36795;45.028;38.968;2023-05-07T15:05:59;17.52;;;3.25;;
49384;SDS011;36795;45.028;38.968;2023-05-07T15:08:45;17.25;;;3.50;;
49384;SDS011;36795;45.028;38.968;2023-05-07T15:11:31;21.77;;;5.00;;
49384;SDS011;36795;45.028;38.968;2023-05-07T15:14:17;16.15;;;4.05;;
49384;SDS011;36795;45.028;38.968;2023-05-07T15:17:04;19.30;;;5.00;;
49384;SDS011;36795;45.028;38.968;2023-05-07T15:19:50;22.27;;;4.45;;
49384;SDS011;36795;45.028;38.968;2023-05-07T15:22:37;19.90;;;4.10;;
49384;SDS011;36795;45.028;38.968;2023-05-07T15:25:23;20.25;;;4.12;;
49384;SDS011;36795;45.028;38.968;2023-05-07T15:28:09;15.63;;;3.80;;
49384;SDS011;36795;45.028;38.968;2023-05-07T15:30:55;16.27;;;3.53;;
49384;SDS011;36795;45.028;38.968;2023-05-07T15:33:41;17.48;;;3.60;;
49384;SDS011;36795;45.028;38.968;2023-05-07T15:36:27;14.95;;;3.62;;
49384;SDS011;36795;45.028;38.968;2023-05-07T15:39:13;18.50;;;4.20;;
49384;SDS011;36795;45.028;38.968;2023-05-07T15:42:00;21.90;;;4.30;;
49384;SDS011;36795;45.028;38.968;2023-05-07T15:44:46;19.48;;;4.03;;
49384;SDS011;36795;45.028;38.968;2023-05-07T15:47:33;17.45;;;3.78;;
49384;SDS011;36795;45.028;38.968;2023-05-07T15:50:20;19.15;;;3.30;;
49384;SDS011;36795;45.028;38.968;2023-05-07T15:53:06;17.75;;;3.97;;
49384;SDS011;36795;45.028;38.968;2023-05-07T15:55:53;19.00;;;4.03;;
49384;SDS011;36795;45.028;38.968;2023-05-07T15:58:39;18.52;;;4.18;;
49384;SDS011;36795;45.028;38.968;2023-05-07T16:01:26;19.83;;;3.97;;
49384;SDS011;36795;45.028;38.968;2023-05-07T16:04:12;18.27;;;4.00;;
49384;SDS011;36795;45.028;38.968;2023-05-07T16:06:58;20.85;;;3.42;;
49384;SDS011;36795;45.028;38.968;2023-05-07T16:09:45;26.55;;;5.43;;
49384;SDS011;36795;45.028;38.968;2023-05-07T16:12:31;29.15;;;5.00;;
49384;SDS011;36795;45.028;38.968;2023-05-07T16:15:17;23.35;;;3.90;;
49384;SDS011;36795;45.028;38.968;2023-05-07T16:18:03;20.08;;;5.12;;
49384;SDS011;36795;45.028;38.968;2023-05-07T16:20:49;18.50;;;3.70;;
49384;SDS011;36795;45.028;38.968;2023-05-07T16:23:35;35.08;;;5.90;;
49384;SDS011;36795;45.028;38.968;2023-05-07T16:26:22;22.13;;;6.95;;
49384;SDS011;36795;45.028;38.968;2023-05-07T16:29:07;21.23;;;4.07;;
49384;SDS011;36795;45.028;38.968;2023-05-07T16:31:56;18.80;;;4.10;;
49384;SDS011;36795;45.028;38.968;2023-05-07T16:34:42;23.10;;;6.40;;
49384;SDS011;36795;45.028;38.968;2023-05-07T16:37:28;22.48;;;5.22;;